Time;durP1;ratioP1;P1;durP2;ratioP2;P2;SDS_P1;SDS_P2;PMS_P1;PMS_P2;Temp;Humidity;BMP_temperature;BMP_pressure;BME280_temperature;BME280_humidity;BME280_pressure;Samples;Min_cycle;Max_cycle;Signal;HPM_P1;HPM_P2
2022/05/15 00:00:53;;;;;;;4.35;1.75;;;;;;;11.01;93.66;99246.94;5113834;28;20325;-78
2022/05/15 00:03:23;;;;;;;10.45;2.78;;;;;;;11.10;94.22;99253.16;5112340;28;20043;-78
2022/05/15 00:05:54;;;;;;;4.30;1.55;;;;;;;11.00;95.23;99274.34;5112650;28;20052;-78
2022/05/15 00:08:21;;;;;;;4.78;1.92;;;;;;;10.80;97.88;99277.56;5114774;28;20047;-78
2022/05/15 00:10:47;;;;;;;2.45;1.60;;;;;;;10.65;96.17;99242.19;5111694;28;20047;-78
2022/05/15 00:13:14;;;;;;;5.15;1.70;;;;;;;10.75;95.28;99264.53;5110691;28;20502;-78
2022/05/15 00:15:41;;;;;;;1.98;1.52;;;;;;;10.55;95.85;99239.72;5112836;28;20396;-78
2022/05/15 00:18:10;;;;;;;3.53;1.70;;;;;;;10.65;97.78;99263.94;5111771;28;20056;-78
2022/05/15 00:20:39;;;;;;;5.90;1.60;;;;;;;10.78;96.53;99260.59;5111394;28;20040;-78
2022/05/15 00:23:06;;;;;;;4.28;1.67;;;;;;;10.68;95.99;99255.41;5112468;28;20388;-78
2022/05/15 00:25:34;;;;;;;2.85;1.73;;;;;;;10.55;96.82;99241.59;5100624;28;20047;-78
2022/05/15 00:28:00;;;;;;;2.10;1.40;;;;;;;10.50;97.67;99244.03;5112549;28;20044;-78
2022/05/15 00:30:27;;;;;;;3.72;1.75;;;;;;;10.38;98.87;99243.59;5106160;28;20406;-78
2022/05/15 00:32:54;;;;;;;2.95;1.60;;;;;;;10.39;99.18;99235.28;5110430;28;20517;-78
2022/05/15 00:35:22;;;;;;;2.63;1.30;;;;;;;10.44;99.13;99248.31;5108746;28;20051;-78
2022/05/15 00:37:49;;;;;;;3.50;1.80;;;;;;;10.23;99.88;99243.50;5112742;28;20083;-78
2022/05/15 00:40:18;;;;;;;2.53;1.33;;;;;;;10.35;100.00;99257.56;5112526;28;20081;-78
2022/05/15 00:42:44;;;;;;;2.75;1.42;;;;;;;10.33;99.11;99256.84;5110798;28;20048;-78
2022/05/15 00:45:12;;;;;;;3.72;1.30;;;;;;;10.47;99.21;99258.81;5110510;28;20126;-78
2022/05/15 00:47:40;;;;;;;4.30;1.90;;;;;;;10.18;100.00;99229.63;5110867;28;20391;-78
2022/05/15 00:50:11;;;;;;;2.58;1.13;;;;;;;10.17;100.00;99244.22;5109699;28;20438;-78
2022/05/15 00:52:43;;;;;;;4.50;2.10;;;;;;;10.10;100.00;99225.94;5106965;28;20040;-78
2022/05/15 00:55:15;;;;;;;3.30;2.00;;;;;;;10.04;100.00;99232.09;5111328;28;20505;-78
2022/05/15 00:57:47;;;;;;;2.70;1.73;;;;;;;10.09;100.00;99250.56;5112285;28;20058;-78
2022/05/15 01:00:18;;;;;;;3.03;1.70;;;;;;;9.94;100.00;99225.22;5101374;28;20047;-78
2022/05/15 01:02:51;;;;;;;6.35;2.05;;;;;;;9.93;100.00;99221.63;5104415;28;20130;-78
2022/05/15 01:05:19;;;;;;;4.18;1.50;;;;;;;9.91;100.00;99219.09;5106661;28;20049;-78
2022/05/15 01:07:47;;;;;;;3.95;1.70;;;;;;;10.10;100.00;99238.66;5110751;28;20501;-78
2022/05/15 01:10:14;;;;;;;2.10;1.30;;;;;;;9.98;100.00;99227.38;5105140;28;20054;-78
2022/05/15 01:12:42;;;;;;;2.05;1.50;;;;;;;9.71;100.00;99220.56;5106310;27;20048;-78
2022/05/15 01:15:11;;;;;;;5.05;1.85;;;;;;;9.53;100.00;99216.25;5111949;28;20058;-78
2022/05/15 01:17:38;;;;;;;2.42;1.50;;;;;;;9.61;100.00;99236.25;5111286;28;20036;-78
2022/05/15 01:20:08;;;;;;;2.80;1.60;;;;;;;9.53;100.00;99221.69;5098434;28;20044;-78
2022/05/15 01:22:36;;;;;;;3.78;1.67;;;;;;;9.69;100.00;99225.34;5100392;28;20070;-78
2022/05/15 01:25:03;;;;;;;5.45;1.75;;;;;;;9.78;100.00;99213.41;5110553;28;20141;-78
2022/05/15 01:27:30;;;;;;;6.95;1.63;;;;;;;9.73;100.00;99215.81;5112084;28;20483;-78
2022/05/15 01:29:57;;;;;;;5.25;1.33;;;;;;;9.79;100.00;99233.28;5111647;28;20058;-78
2022/05/15 01:32:23;;;;;;;3.28;1.60;;;;;;;9.43;100.00;99203.94;5109799;28;20051;-78
2022/05/15 01:34:50;;;;;;;3.65;1.55;;;;;;;9.49;100.00;99230.34;5106619;28;20052;-78
2022/05/15 01:37:16;;;;;;;2.53;2.33;;;;;;;9.62;100.00;99229.78;5108766;28;20052;-78
2022/05/15 01:39:44;;;;;;;3.47;1.88;;;;;;;9.27;100.00;99204.84;5101841;28;20044;-78
2022/05/15 01:42:11;;;;;;;2.15;1.45;;;;;;;9.38;100.00;99223.47;5107113;28;20043;-78
2022/05/15 01:44:38;;;;;;;3.90;1.67;;;;;;;9.33;100.00;99233.97;5110896;28;20048;-78
2022/05/15 01:47:05;;;;;;;6.85;1.80;;;;;;;9.36;100.00;99222.75;5109636;28;20043;-78
2022/05/15 01:49:31;;;;;;;2.65;1.55;;;;;;;9.31;100.00;99214.31;5110169;28;20040;-78
2022/05/15 01:51:58;;;;;;;3.60;1.83;;;;;;;9.43;100.00;99245.47;5108042;28;20058;-78
2022/05/15 01:54:25;;;;;;;2.55;1.70;;;;;;;9.45;100.00;99238.00;5104243;28;20251;-78
2022/05/15 01:56:52;;;;;;;3.97;2.00;;;;;;;9.37;100.00;99232.59;5101214;28;20050;-78
2022/05/15 01:59:19;;;;;;;5.63;1.80;;;;;;;9.21;100.00;99228.06;5106979;28;20047;-78
2022/05/15 02:01:45;;;;;;;2.70;1.33;;;;;;;9.21;100.00;99237.06;5104845;28;20047;-78
2022/05/15 02:04:12;;;;;;;2.97;1.77;;;;;;;9.32;100.00;99249.41;5106268;28;20387;-78
2022/05/15 02:06:42;;;;;;;2.67;1.48;;;;;;;9.30;100.00;99237.03;5109622;28;20039;-78
2022/05/15 02:09:09;;;;;;;4.00;1.77;;;;;;;9.25;100.00;99228.59;5111272;28;20059;-77
2022/05/15 02:11:37;;;;;;;2.97;1.63;;;;;;;9.11;100.00;99225.56;5109644;28;20050;-78
2022/05/15 02:14:05;;;;;;;3.63;1.38;;;;;;;9.12;100.00;99224.56;5102656;28;20064;-78
2022/05/15 02:16:32;;;;;;;1.90;1.27;;;;;;;9.10;100.00;99199.47;5109019;28;20048;-77
2022/05/15 02:18:59;;;;;;;1.90;1.70;;;;;;;9.18;100.00;99234.72;5124218;28;20161;-77
2022/05/15 02:21:25;;;;;;;2.15;1.50;;;;;;;8.89;100.00;99213.59;5112011;28;20047;-78
2022/05/15 02:23:52;;;;;;;4.82;2.00;;;;;;;8.99;100.00;99235.94;5096137;28;20044;-77
2022/05/15 02:26:19;;;;;;;8.32;2.03;;;;;;;8.79;100.00;99218.34;5104330;28;20035;-78
2022/05/15 02:28:45;;;;;;;5.95;1.90;;;;;;;8.84;100.00;99241.22;5111227;28;20070;-78
2022/05/15 02:31:13;;;;;;;4.70;1.50;;;;;;;8.66;100.00;99217.00;5104114;28;20039;-78
2022/05/15 02:33:41;;;;;;;3.55;1.45;;;;;;;8.81;100.00;99233.44;5104293;28;20051;-77
2022/05/15 02:36:08;;;;;;;4.38;2.17;;;;;;;8.85;100.00;99228.50;5103336;28;20415;-78
2022/05/15 02:38:36;;;;;;;2.70;1.60;;;;;;;8.67;100.00;99218.72;5102342;28;20051;-77
2022/05/15 02:41:03;;;;;;;3.85;1.63;;;;;;;8.90;100.00;99241.53;5110129;28;20051;-78
2022/05/15 02:43:30;;;;;;;5.72;1.65;;;;;;;8.85;100.00;99237.50;5109626;28;20133;-78
2022/05/15 02:45:56;;;;;;;3.17;1.75;;;;;;;8.71;100.00;99240.91;5102961;28;20047;-78
2022/05/15 02:51:09;;;;;;;3.10;1.42;;;;;;;8.46;100.00;99231.94;5110848;28;20161;-78
2022/05/15 02:53:38;;;;;;;3.30;1.75;;;;;;;8.70;100.00;99250.03;5107974;28;20062;-78
2022/05/15 02:56:07;;;;;;;4.25;1.85;;;;;;;8.71;100.00;99245.47;5108587;28;20070;-78
2022/05/15 02:58:34;;;;;;;5.20;1.38;;;;;;;8.46;100.00;99224.66;5110390;28;20048;-78
2022/05/15 03:01:00;;;;;;;4.40;1.98;;;;;;;8.64;100.00;99243.47;5108559;28;20058;-78
2022/05/15 03:03:28;;;;;;;2.85;1.75;;;;;;;8.52;100.00;99227.69;5109301;28;20043;-78
2022/05/15 03:05:55;;;;;;;2.38;1.77;;;;;;;8.56;100.00;99223.63;5108133;28;20061;-78
2022/05/15 03:08:22;;;;;;;3.53;1.40;;;;;;;8.51;100.00;99221.44;5107052;28;20043;-78
2022/05/15 03:10:49;;;;;;;4.93;1.70;;;;;;;8.54;100.00;99223.81;5112883;28;20138;-78
2022/05/15 03:13:15;;;;;;;3.90;1.65;;;;;;;8.66;100.00;99243.28;5112617;28;20119;-78
2022/05/15 03:15:42;;;;;;;3.20;1.85;;;;;;;8.56;100.00;99239.91;5112890;28;20108;-78
2022/05/15 03:18:09;;;;;;;6.53;1.92;;;;;;;8.53;100.00;99238.38;5113363;28;20059;-78
2022/05/15 03:20:36;;;;;;;1.95;1.75;;;;;;;8.40;100.00;99229.88;5112780;28;20047;-78
2022/05/15 03:23:03;;;;;;;2.20;2.00;;;;;;;8.39;100.00;99220.91;5111653;28;20057;-78
2022/05/15 03:25:31;;;;;;;5.05;1.50;;;;;;;8.43;100.00;99237.66;5110659;28;20050;-78
2022/05/15 03:27:58;;;;;;;2.17;1.30;;;;;;;8.50;100.00;99236.00;5112776;28;20122;-78
2022/05/15 03:30:24;;;;;;;3.55;1.58;;;;;;;8.48;100.00;99241.59;5104232;28;20047;-78
2022/05/15 03:32:51;;;;;;;3.30;1.60;;;;;;;8.53;100.00;99226.69;5109759;28;20049;-77
2022/05/15 03:35:17;;;;;;;6.40;1.80;;;;;;;8.45;100.00;99239.22;5113289;28;20067;-78
2022/05/15 03:37:45;;;;;;;6.00;1.50;;;;;;;8.09;100.00;99207.00;5110405;28;20098;-77
2022/05/15 03:40:14;;;;;;;7.60;1.98;;;;;;;8.19;100.00;99230.38;5111956;28;20047;-78
2022/05/15 03:42:41;;;;;;;4.90;2.10;;;;;;;8.29;100.00;99242.72;5111647;28;20054;-77
2022/05/15 03:45:08;;;;;;;2.55;1.77;;;;;;;8.18;100.00;99223.28;5108323;28;20066;-77
2022/05/15 03:47:35;;;;;;;5.28;2.85;;;;;;;8.23;100.00;99231.72;5114109;28;20502;-77
2022/05/15 03:50:03;;;;;;;4.03;1.75;;;;;;;8.27;100.00;99224.97;5109638;28;20410;-78
2022/05/15 03:52:29;;;;;;;2.08;1.85;;;;;;;8.61;100.00;99262.75;5106776;28;20048;-77
2022/05/15 03:54:57;;;;;;;2.50;1.80;;;;;;;8.26;100.00;99234.09;5104484;28;20043;-77
2022/05/15 03:57:23;;;;;;;3.17;1.80;;;;;;;8.29;100.00;99247.31;5112426;28;20043;-78
2022/05/15 03:59:50;;;;;;;4.15;1.63;;;;;;;8.27;100.00;99246.63;5108369;28;20039;-77
2022/05/15 04:02:16;;;;;;;3.10;1.42;;;;;;;8.38;100.00;99264.41;5112452;28;20043;-77
2022/05/15 04:04:43;;;;;;;2.08;1.35;;;;;;;8.21;100.00;99240.03;5109748;28;20055;-77
2022/05/15 04:07:10;;;;;;;3.78;2.58;;;;;;;8.19;100.00;99252.03;5112710;28;20047;-78
2022/05/15 04:09:40;;;;;;;4.15;1.48;;;;;;;8.26;100.00;99259.31;5112688;28;20035;-78
2022/05/15 04:12:09;;;;;;;2.33;2.03;;;;;;;8.32;100.00;99274.06;5111554;28;20052;-77
2022/05/15 04:14:35;;;;;;;2.70;2.03;;;;;;;8.27;100.00;99243.94;5111287;28;20136;-77
2022/05/15 04:17:02;;;;;;;5.18;2.72;;;;;;;8.25;100.00;99230.56;5113580;28;20482;-77
2022/05/15 04:19:28;;;;;;;3.67;1.77;;;;;;;8.42;100.00;99250.38;5107141;28;20070;-78
2022/05/15 04:21:58;;;;;;;6.57;2.05;;;;;;;8.71;100.00;99272.59;5113610;28;20048;-77
2022/05/15 04:24:25;;;;;;;3.13;1.73;;;;;;;8.58;100.00;99262.25;5110583;28;20431;-78
2022/05/15 04:26:52;;;;;;;2.08;1.60;;;;;;;8.49;100.00;99251.41;5110007;28;20047;-78
2022/05/15 04:29:19;;;;;;;4.68;1.73;;;;;;;8.58;100.00;99265.81;5111535;28;20642;-78
2022/05/15 04:31:46;;;;;;;3.67;2.17;;;;;;;8.46;100.00;99242.75;5113108;28;20047;-78
2022/05/15 04:34:12;;;;;;;6.75;2.10;;;;;;;8.53;100.00;99234.81;5092306;28;20630;-77
2022/05/15 04:36:39;;;;;;;2.65;1.88;;;;;;;8.64;100.00;99243.47;5112371;28;20044;-78
2022/05/15 04:39:07;;;;;;;3.72;1.80;;;;;;;8.87;100.00;99275.28;5111554;28;20047;-77
2022/05/15 04:41:33;;;;;;;2.05;1.70;;;;;;;8.81;100.00;99235.31;5107884;28;20043;-77
2022/05/15 04:44:01;;;;;;;9.82;2.08;;;;;;;9.04;100.00;99260.66;5110898;27;20491;-77
2022/05/15 04:46:29;;;;;;;3.35;2.40;;;;;;;9.00;100.00;99244.91;5113248;28;20048;-78
2022/05/15 04:48:56;;;;;;;4.10;2.10;;;;;;;9.25;100.00;99263.84;5113456;28;20434;-78
2022/05/15 04:51:23;;;;;;;2.40;1.90;;;;;;;9.16;100.00;99233.19;5101955;28;20490;-78
2022/05/15 04:53:49;;;;;;;3.08;2.15;;;;;;;9.23;100.00;99236.03;5112104;28;20074;-77
2022/05/15 04:56:15;;;;;;;4.00;2.13;;;;;;;9.28;100.00;99230.94;5111008;28;20052;-78
2022/05/15 04:58:42;;;;;;;4.35;2.58;;;;;;;9.47;100.00;99240.53;5112869;28;20043;-78
2022/05/15 05:01:08;;;;;;;4.45;2.35;;;;;;;9.63;100.00;99251.31;5098503;28;20133;-78
2022/05/15 05:03:38;;;;;;;5.57;2.10;;;;;;;9.65;100.00;99257.44;5099618;28;20044;-77
2022/05/15 05:06:06;;;;;;;2.15;1.88;;;;;;;9.65;100.00;99226.69;5094283;28;20072;-78
2022/05/15 05:08:33;;;;;;;4.45;1.90;;;;;;;10.05;100.00;99227.50;5093972;28;20047;-77
2022/05/15 05:11:00;;;;;;;5.00;2.10;;;;;;;10.44;100.00;99230.13;5109689;28;20146;-77
2022/05/15 05:13:26;;;;;;;5.38;2.00;;;;;;;11.14;100.00;99262.59;5110692;28;20054;-78
2022/05/15 05:15:53;;;;;;;3.97;2.00;;;;;;;11.68;97.26;99246.00;5110951;28;20044;-78
2022/05/15 05:18:20;;;;;;;5.25;2.00;;;;;;;12.23;92.45;99222.97;5111012;28;20410;-78
2022/05/15 05:20:48;;;;;;;5.97;2.38;;;;;;;12.67;89.58;99239.09;5107798;28;20047;-78
2022/05/15 05:23:15;;;;;;;3.42;2.03;;;;;;;12.85;85.46;99241.34;5100790;28;20127;-78
2022/05/15 05:25:42;;;;;;;5.10;1.83;;;;;;;13.26;83.40;99235.13;5104250;28;20135;-78
2022/05/15 05:28:09;;;;;;;4.00;1.92;;;;;;;13.62;83.04;99233.22;5094085;28;20877;-78
2022/05/15 05:30:38;;;;;;;3.72;1.83;;;;;;;13.88;82.21;99228.91;5104924;27;20040;-78
2022/05/15 05:33:06;;;;;;;2.88;1.48;;;;;;;14.24;80.14;99252.38;5107133;28;20540;-78
2022/05/15 05:35:33;;;;;;;2.47;1.70;;;;;;;14.21;78.17;99255.53;5092629;28;20126;-78
2022/05/15 05:38:01;;;;;;;4.15;1.88;;;;;;;14.22;77.20;99246.28;5092455;28;20051;-78
2022/05/15 05:40:28;;;;;;;3.58;1.83;;;;;;;14.55;75.48;99251.81;5092588;28;20102;-78
2022/05/15 05:42:54;;;;;;;5.32;1.90;;;;;;;15.00;73.13;99275.84;5104808;28;20079;-78
2022/05/15 05:45:21;;;;;;;8.82;2.05;;;;;;;14.94;73.02;99271.22;5105397;28;20048;-78
2022/05/15 05:47:49;;;;;;;4.80;2.22;;;;;;;15.36;72.35;99260.88;5099530;28;20130;-78
2022/05/15 05:50:18;;;;;;;3.80;1.60;;;;;;;15.70;72.75;99243.28;5112945;27;20040;-78
2022/05/15 05:52:44;;;;;;;4.18;1.80;;;;;;;15.99;72.28;99273.13;5109503;28;20052;-78
2022/05/15 05:55:15;;;;;;;3.85;1.90;;;;;;;16.05;70.82;99261.31;5099062;28;20059;-78
2022/05/15 05:57:43;;;;;;;2.58;1.85;;;;;;;16.34;69.59;99264.53;5108368;27;20384;-78
2022/05/15 06:00:12;;;;;;;5.05;1.60;;;;;;;16.18;69.93;99252.16;5106201;28;20422;-77
2022/05/15 06:02:39;;;;;;;3.03;2.03;;;;;;;16.54;68.05;99272.63;5112881;28;20126;-77
2022/05/15 06:05:06;;;;;;;4.63;2.28;;;;;;;16.75;67.93;99258.53;5111584;28;20079;-79
2022/05/15 06:07:34;;;;;;;7.13;3.53;;;;;;;16.88;66.16;99248.56;5094205;28;20068;-78
2022/05/15 06:10:02;;;;;;;6.78;3.10;;;;;;;16.67;63.22;99249.75;5092226;28;20054;-78
2022/05/15 06:12:30;;;;;;;6.30;2.47;;;;;;;16.76;65.40;99245.66;5091928;28;20458;-78
2022/05/15 06:14:57;;;;;;;4.30;1.88;;;;;;;16.88;64.21;99232.91;5102499;28;20062;-78
2022/05/15 06:17:26;;;;;;;4.22;1.77;;;;;;;16.84;62.82;99244.53;5112065;28;20047;-77
2022/05/15 06:19:53;;;;;;;4.32;2.20;;;;;;;17.25;61.32;99262.34;5092267;28;20056;-79
2022/05/15 06:22:19;;;;;;;3.53;1.90;;;;;;;17.65;59.18;99253.69;5092011;28;20130;-78
2022/05/15 06:24:46;;;;;;;5.05;1.90;;;;;;;17.15;59.28;99249.16;5098209;28;20040;-78
2022/05/15 06:27:14;;;;;;;4.60;2.00;;;;;;;17.55;58.61;99245.16;5106207;28;20055;-78
2022/05/15 06:29:43;;;;;;;3.67;2.20;;;;;;;17.82;57.70;99235.50;5103457;28;20058;-78
2022/05/15 06:32:10;;;;;;;3.60;2.17;;;;;;;18.08;56.01;99243.69;5110531;28;20449;-77
2022/05/15 06:34:36;;;;;;;5.72;2.08;;;;;;;18.26;55.66;99256.56;5098274;28;20055;-78
2022/05/15 06:37:03;;;;;;;7.43;2.20;;;;;;;18.05;54.44;99225.75;5111258;28;20051;-77
2022/05/15 06:39:31;;;;;;;4.28;2.00;;;;;;;18.40;53.17;99245.13;5111418;28;20051;-78
2022/05/15 06:41:59;;;;;;;4.55;2.38;;;;;;;18.61;53.87;99236.56;5103311;28;20051;-78
2022/05/15 06:44:26;;;;;;;5.05;2.03;;;;;;;19.00;52.90;99237.88;5106114;27;20055;-78
2022/05/15 06:46:54;;;;;;;4.55;1.90;;;;;;;19.44;52.32;99243.84;5107427;28;20047;-77
2022/05/15 06:49:21;;;;;;;3.70;2.05;;;;;;;19.71;52.33;99239.75;5109346;28;20070;-78
2022/05/15 06:51:47;;;;;;;7.20;2.50;;;;;;;19.65;53.29;99247.06;5107016;28;20043;-78
2022/05/15 06:54:14;;;;;;;5.47;2.10;;;;;;;19.55;53.05;99244.91;5108529;28;20047;-78
2022/05/15 06:59:24;;;;;;;7.13;1.90;;;;;;;19.83;53.19;99242.47;5101613;28;20066;-78
2022/05/15 07:01:51;;;;;;;6.93;2.17;;;;;;;19.91;53.78;99225.56;5109040;28;20491;-78
2022/05/15 07:04:19;;;;;;;4.18;1.98;;;;;;;20.11;53.67;99238.94;5108773;28;20054;-78
2022/05/15 07:06:45;;;;;;;5.78;2.70;;;;;;;20.28;52.32;99223.25;5102673;28;20051;-78
2022/05/15 07:09:12;;;;;;;5.47;1.98;;;;;;;20.56;52.14;99245.56;5108482;28;20052;-78
2022/05/15 07:11:39;;;;;;;6.68;2.08;;;;;;;20.29;52.14;99213.91;5108514;28;20055;-78
2022/05/15 07:14:06;;;;;;;8.85;1.90;;;;;;;20.40;51.32;99228.72;5106787;28;20317;-78
2022/05/15 07:16:32;;;;;;;5.40;1.90;;;;;;;20.84;51.23;99239.19;5108858;28;20040;-78
2022/05/15 07:18:59;;;;;;;3.38;1.70;;;;;;;20.89;51.32;99221.84;5108684;28;20423;-78
2022/05/15 07:21:26;;;;;;;5.57;1.63;;;;;;;21.25;51.57;99227.94;5107986;28;20048;-78
2022/05/15 07:23:53;;;;;;;5.53;1.77;;;;;;;20.90;51.70;99212.50;5101511;28;20347;-78
2022/05/15 07:26:19;;;;;;;4.45;1.67;;;;;;;21.35;51.15;99205.97;5108019;28;20052;-78
2022/05/15 07:28:50;;;;;;;3.88;1.95;;;;;;;21.01;52.19;99215.13;5107302;28;20047;-78
2022/05/15 07:31:18;;;;;;;3.53;1.85;;;;;;;21.66;50.09;99210.00;5108574;28;20491;-78
2022/05/15 07:33:45;;;;;;;6.28;1.75;;;;;;;21.81;51.35;99200.25;5107846;28;20055;-78
2022/05/15 07:36:11;;;;;;;3.97;1.50;;;;;;;22.12;50.74;99215.28;5107862;28;20056;-78
2022/05/15 07:38:39;;;;;;;2.28;1.58;;;;;;;21.80;49.15;99209.63;5106415;28;20047;-77
2022/05/15 07:41:06;;;;;;;2.72;2.05;;;;;;;22.23;50.37;99214.28;5104361;28;20526;-78
2022/05/15 07:43:32;;;;;;;4.43;1.77;;;;;;;22.39;49.56;99233.88;5106849;28;20047;-78
2022/05/15 07:45:59;;;;;;;2.42;1.77;;;;;;;21.84;50.84;99199.72;5107582;28;20047;-78
2022/05/15 07:48:25;;;;;;;10.05;1.80;;;;;;;21.82;52.83;99227.66;5108311;28;20047;-78
2022/05/15 07:50:52;;;;;;;3.38;1.75;;;;;;;22.22;51.91;99209.84;5108363;28;20047;-78
2022/05/15 07:53:19;;;;;;;5.18;1.88;;;;;;;21.85;52.31;99216.06;5107111;28;20054;-78
2022/05/15 07:55:47;;;;;;;7.20;1.60;;;;;;;21.69;52.83;99204.00;5108754;28;20135;-78
2022/05/15 07:58:13;;;;;;;3.92;1.98;;;;;;;21.88;52.24;99195.34;5102441;28;20126;-78
2022/05/15 08:00:40;;;;;;;4.70;1.60;;;;;;;21.80;52.22;99204.09;5112540;28;20056;-78
2022/05/15 08:03:10;;;;;;;6.60;1.90;;;;;;;21.87;51.82;99202.78;5111099;28;20051;-78
2022/05/15 08:08:23;;;;;;;4.28;1.92;;;;;;;22.34;52.33;99200.56;5111305;28;20067;-79
2022/05/15 08:10:52;;;;;;;5.05;1.63;;;;;;;22.40;49.48;99202.28;5095889;28;20048;-78
2022/05/15 08:13:22;;;;;;;3.83;1.70;;;;;;;22.45;49.86;99214.25;5102535;28;20082;-78
2022/05/15 08:15:49;;;;;;;7.97;2.03;;;;;;;22.65;49.42;99225.81;5111834;28;20048;-78
2022/05/15 08:23:48;;;;;;;3.10;1.63;;;;;;;22.44;50.37;99206.22;5104557;28;20180;-78
2022/05/15 08:26:16;;;;;;;5.10;1.50;;;;;;;22.62;50.41;99199.47;5091060;28;20464;-78
2022/05/15 08:28:42;;;;;;;4.82;1.60;;;;;;;22.52;52.01;99208.53;5089854;28;20044;-78
2022/05/15 08:31:09;;;;;;;4.15;1.70;;;;;;;22.79;49.74;99189.09;5110681;28;20391;-78
2022/05/15 08:33:37;;;;;;;5.22;2.25;;;;;;;23.06;48.46;99184.56;5110827;28;20375;-79
2022/05/15 08:36:06;;;;;;;5.95;1.40;;;;;;;23.45;47.26;99203.69;5111574;28;20142;-78
2022/05/15 08:38:33;;;;;;;4.55;1.73;;;;;;;23.43;47.20;99189.28;5110163;28;20055;-78
2022/05/15 08:41:02;;;;;;;8.98;1.83;;;;;;;23.30;47.25;99205.25;5110890;28;20044;-78
2022/05/15 08:43:42;;;;;;;2.20;1.30;;;;;;;23.27;46.67;99203.03;5108310;28;20082;-78
2022/05/15 08:46:18;;;;;;;;;;;;;;;23.42;46.23;99195.91;5110013;28;20475;-78
2022/05/15 08:48:44;;;;;;;5.35;1.40;;;;;;;23.41;46.43;99203.41;5111035;28;19919;-78
2022/05/15 08:51:14;;;;;;;4.18;1.27;;;;;;;23.48;44.81;99173.47;5110871;28;20047;-77
2022/05/15 08:53:44;;;;;;;1.83;1.08;;;;;;;23.43;43.49;99175.41;5109265;28;20047;-77
2022/05/15 08:56:14;;;;;;;7.05;1.20;;;;;;;23.73;39.19;99180.25;5111038;28;20063;-77
2022/05/15 08:58:47;;;;;;;6.57;1.30;;;;;;;23.77;39.55;99192.47;5110452;28;20178;-77
2022/05/15 09:01:18;;;;;;;4.78;1.40;;;;;;;23.88;40.42;99173.94;5109589;28;20043;-77
2022/05/15 09:03:45;;;;;;;3.55;1.15;;;;;;;24.12;39.64;99195.69;5109962;28;20085;-76
2022/05/15 09:06:27;;;;;;;10.15;1.35;;;;;;;23.96;37.20;99172.59;5108269;28;20073;-77
2022/05/15 09:09:09;;;;;;;4.82;1.48;;;;;;;23.61;36.61;99163.81;5110644;28;20108;-76
2022/05/15 09:11:44;;;;;;;6.07;1.30;;;;;;;23.79;35.63;99193.03;5110287;28;20487;-76
2022/05/15 09:14:15;;;;;;;2.95;1.00;;;;;;;23.68;39.52;99172.75;5109404;28;20047;-76
2022/05/15 09:16:54;;;;;;;2.63;1.13;;;;;;;24.03;37.57;99181.50;5106709;28;20078;-77
2022/05/15 09:19:21;;;;;;;4.68;1.50;;;;;;;24.00;40.01;99182.88;5103250;28;20052;-77
2022/05/15 09:21:54;;;;;;;2.90;1.20;;;;;;;23.69;36.27;99170.78;5091383;28;20139;-76
2022/05/15 09:24:31;;;;;;;5.45;0.90;;;;;;;23.62;38.39;99167.41;5089438;28;20059;-76
2022/05/15 09:27:11;;;;;;;3.15;1.13;;;;;;;23.95;38.20;99191.19;5089436;28;20056;-76
2022/05/15 09:29:42;;;;;;;5.68;1.20;;;;;;;24.08;37.80;99158.47;5089773;28;20051;-77
2022/05/15 09:32:26;;;;;;;4.40;1.17;;;;;;;24.09;37.02;99154.56;5099908;28;20597;-77
2022/05/15 09:34:53;;;;;;;3.33;1.15;;;;;;;24.21;37.02;99166.25;5108934;28;20047;-76
2022/05/15 09:40:14;;;;;;;3.28;1.20;;;;;;;24.01;36.90;99164.25;5109713;28;20106;-76
2022/05/15 09:45:47;;;;;;;4.28;1.08;;;;;;;24.43;35.17;99151.28;5108751;28;20177;-76
2022/05/15 09:48:13;;;;;;;6.10;0.98;;;;;;;24.51;35.37;99162.69;5099275;28;20437;-77
2022/05/15 09:50:53;;;;;;;4.53;1.33;;;;;;;24.83;35.81;99163.56;5104872;28;20058;-77
2022/05/15 09:53:23;;;;;;;1.98;1.02;;;;;;;25.13;39.56;99159.03;5109373;28;20043;-76
2022/05/15 09:55:59;;;;;;;3.20;1.33;;;;;;;25.02;34.72;99156.31;5109375;28;20055;-77
2022/05/15 09:58:25;;;;;;;4.35;0.90;;;;;;;25.23;34.55;99167.38;5089353;28;20130;-76
2022/05/15 10:01:11;;;;;;;7.85;1.33;;;;;;;25.21;35.85;99131.47;5089158;28;20044;-76
2022/05/15 10:03:38;;;;;;;4.65;1.05;;;;;;;25.33;36.56;99136.78;5103387;28;20134;-77
2022/05/15 10:06:08;;;;;;;5.80;0.93;;;;;;;25.51;35.65;99145.63;5108005;28;20055;-78
2022/05/15 10:08:36;;;;;;;4.55;0.95;;;;;;;25.59;35.88;99122.75;5109411;28;20043;-77
2022/05/15 10:11:05;;;;;;;3.22;1.05;;;;;;;25.62;34.21;99161.16;5108953;28;20051;-77
2022/05/15 10:13:36;;;;;;;5.60;1.03;;;;;;;25.08;34.66;99148.75;5108538;28;20047;-77
2022/05/15 10:16:11;;;;;;;4.25;0.90;;;;;;;25.25;36.41;99132.59;5108849;28;20166;-77
2022/05/15 10:18:45;;;;;;;3.30;0.85;;;;;;;25.58;37.65;99140.59;5108810;28;20051;-77
2022/05/15 10:21:13;;;;;;;3.65;1.27;;;;;;;25.59;32.76;99125.53;5108923;28;20083;-78
2022/05/15 10:23:46;;;;;;;2.92;1.50;;;;;;;25.88;34.83;99139.59;5107220;28;20075;-78
2022/05/15 10:26:19;;;;;;;7.20;1.00;;;;;;;25.93;34.99;99120.06;5101223;28;20126;-77
2022/05/15 10:28:52;;;;;;;2.05;1.20;;;;;;;25.83;34.99;99139.63;5108687;28;20048;-78
2022/05/15 10:31:26;;;;;;;2.40;1.00;;;;;;;25.96;33.97;99108.34;5108803;28;20519;-78
2022/05/15 10:33:56;;;;;;;3.42;1.00;;;;;;;25.96;32.97;99135.38;5108356;28;20052;-77
2022/05/15 10:36:37;;;;;;;2.25;0.73;;;;;;;26.24;33.10;99114.34;5108762;28;20063;-77
2022/05/15 10:39:13;;;;;;;6.18;1.75;;;;;;;26.21;31.41;99131.63;5107521;28;20100;-77
2022/05/15 10:41:53;;;;;;;3.38;1.20;;;;;;;26.47;33.26;99112.75;5104612;28;20051;-77
2022/05/15 10:44:36;;;;;;;5.65;1.23;;;;;;;26.48;34.33;99100.50;5107769;28;20059;-77
2022/05/15 10:47:08;;;;;;;3.70;1.10;;;;;;;26.63;34.33;99110.69;5108869;28;20055;-77
2022/05/15 10:49:57;;;;;;;5.22;0.90;;;;;;;26.55;30.97;99114.06;5109188;28;20048;-78
2022/05/15 10:52:40;;;;;;;5.45;1.30;;;;;;;26.51;32.88;99096.25;5108039;28;20051;-77
2022/05/15 10:58:12;;;;;;;2.83;1.25;;;;;;;26.75;33.14;99093.59;5107459;28;20054;-77
2022/05/15 11:00:46;;;;;;;4.18;0.98;;;;;;;26.76;32.77;99091.63;5107992;28;20054;-78
2022/05/15 11:03:23;;;;;;;2.90;1.10;;;;;;;26.92;32.77;99098.72;5101389;28;20098;-77
2022/05/15 11:06:02;;;;;;;5.10;1.00;;;;;;;27.17;31.71;99102.34;5088684;28;20105;-77
2022/05/15 11:08:38;;;;;;;2.58;1.10;;;;;;;27.18;32.37;99096.47;5098284;28;20146;-77
2022/05/15 11:11:14;;;;;;;3.42;1.20;;;;;;;27.16;31.69;99095.13;5106488;28;20051;-77
2022/05/15 11:13:49;;;;;;;4.63;1.00;;;;;;;27.10;29.52;99088.75;5096429;28;20407;-77
2022/05/15 11:16:23;;;;;;;4.00;1.63;;;;;;;27.20;29.75;99083.06;5107995;28;20483;-77
2022/05/15 11:19:12;;;;;;;3.10;1.20;;;;;;;26.98;31.87;99083.59;5108680;28;20078;-77
2022/05/15 11:21:51;;;;;;;2.60;1.10;;;;;;;27.16;31.82;99058.84;5108294;28;20040;-77
2022/05/15 11:24:26;;;;;;;3.55;1.40;;;;;;;27.27;32.10;99070.72;5107401;28;20059;-77
2022/05/15 11:26:59;;;;;;;3.92;1.42;;;;;;;27.52;30.83;99076.00;5104227;28;20062;-77
2022/05/15 11:29:27;;;;;;;5.95;1.48;;;;;;;27.58;33.06;99061.94;5110312;28;20094;-77
2022/05/15 11:31:56;;;;;;;7.35;1.30;;;;;;;27.76;31.44;99060.31;5112472;28;20098;-77
2022/05/15 11:35:04;;;;;;;3.33;1.10;;;;;;;27.83;30.86;99039.25;5112084;28;20052;-77
2022/05/15 11:37:52;;;;;;;2.30;1.30;;;;;;;27.11;32.41;99045.75;5112317;28;20058;-77
2022/05/15 11:40:31;;;;;;;7.13;1.23;;;;;;;26.99;29.92;99051.78;5111097;28;20074;-77
2022/05/15 11:42:58;;;;;;;3.13;1.30;;;;;;;27.11;30.14;99042.97;5107616;28;20040;-78
2022/05/15 11:45:38;;;;;;;6.28;1.30;;;;;;;27.25;30.22;99033.88;5112104;28;20112;-77
2022/05/15 11:48:19;;;;;;;4.65;1.10;;;;;;;27.50;31.36;99035.53;5111970;28;20050;-77
2022/05/15 11:50:56;;;;;;;1.00;0.80;;;;;;;27.64;30.12;99058.81;5111817;28;20527;-77
2022/05/15 11:53:28;;;;;;;5.68;1.00;;;;;;;27.61;32.82;99041.81;5111107;28;20479;-77
2022/05/15 11:55:55;;;;;;;2.78;1.15;;;;;;;28.08;30.01;99035.25;5096798;28;20044;-77
2022/05/15 11:58:39;;;;;;;6.43;1.50;;;;;;;28.12;29.52;99017.88;5090652;28;20336;-77
2022/05/15 12:01:11;;;;;;;10.50;1.10;;;;;;;28.06;29.15;99023.56;5110966;28;20138;-77
2022/05/15 12:03:47;;;;;;;2.22;1.10;;;;;;;28.25;33.04;99034.69;5111797;28;20055;-78
2022/05/15 12:06:18;;;;;;;3.10;1.30;;;;;;;28.35;30.13;99035.66;5112170;28;20501;-78